sensor_id;sensor_type;location;lat;lon;timestamp;pressure;altitude;pressure_sealevel;temperature;humidity
56182;BME280;51963;46.052;14.544;2024-03-06T00:00:31;98038.81;;;8.37;100.00
56182;BME280;51963;46.052;14.544;2024-03-06T00:02:58;98037.63;;;8.40;100.00
56182;BME280;51963;46.052;14.544;2024-03-06T00:05:24;98038.19;;;8.35;100.00
56182;BME280;51963;46.052;14.544;2024-03-06T00:07:49;98036.97;;;8.37;100.00
56182;BME280;51963;46.052;14.544;2024-03-06T00:10:15;98050.78;;;8.40;100.00
56182;BME280;51963;46.052;14.544;2024-03-06T00:12:41;98049.97;;;8.39;100.00
56182;BME280;51963;46.052;14.544;2024-03-06T00:15:07;98051.25;;;8.43;100.00
56182;BME280;51963;46.052;14.544;2024-03-06T00:17:32;98053.69;;;8.45;100.00
56182;BME280;51963;46.052;14.544;2024-03-06T00:19:58;98050.06;;;8.46;100.00
56182;BME280;51963;46.052;14.544;2024-03-06T00:22:24;98042.97;;;8.31;100.00
56182;BME280;51963;46.052;14.544;2024-03-06T00:24:53;98034.16;;;8.24;100.00
56182;BME280;51963;46.052;14.544;2024-03-06T00:27:18;98046.59;;;8.30;100.00
56182;BME280;51963;46.052;14.544;2024-03-06T00:29:44;98058.06;;;8.37;100.00
56182;BME280;51963;46.052;14.544;2024-03-06T00:32:10;98060.69;;;8.37;100.00
56182;BME280;51963;46.052;14.544;2024-03-06T00:34:39;98065.06;;;8.45;100.00
56182;BME280;51963;46.052;14.544;2024-03-06T00:37:08;98018.44;;;8.16;100.00
56182;BME280;51963;46.052;14.544;2024-03-06T00:39:33;98072.31;;;8.43;100.00
56182;BME280;51963;46.052;14.544;2024-03-06T00:41:59;98073.13;;;8.44;100.00
56182;BME280;51963;46.052;14.544;2024-03-06T00:44:24;98067.22;;;8.42;100.00
56182;BME280;51963;46.052;14.544;2024-03-06T00:46:50;98044.81;;;8.31;100.00
56182;BME280;51963;46.052;14.544;2024-03-06T00:49:16;98070.34;;;8.45;100.00
56182;BME280;51963;46.052;14.544;2024-03-06T00:51:41;98066.28;;;8.58;100.00
56182;BME280;51963;46.052;14.544;2024-03-06T00:54:07;98055.16;;;8.47;100.00
56182;BME280;51963;46.052;14.544;2024-03-06T00:56:33;98063.16;;;8.54;100.00
56182;BME280;51963;46.052;14.544;2024-03-06T00:59:05;98063.53;;;8.51;100.00
56182;BME280;51963;46.052;14.544;2024-03-06T01:01:30;98056.31;;;8.45;100.00
56182;BME280;51963;46.052;14.544;2024-03-06T01:03:56;98049.06;;;8.47;100.00
56182;BME280;51963;46.052;14.544;2024-03-06T01:06:22;98053.41;;;8.40;100.00
56182;BME280;51963;46.052;14.544;2024-03-06T01:08:48;98042.00;;;8.47;100.00
56182;BME280;51963;46.052;14.544;2024-03-06T01:11:16;98044.00;;;8.45;100.00
56182;BME280;51963;46.052;14.544;2024-03-06T01:13:41;98038.63;;;8.39;100.00
56182;BME280;51963;46.052;14.544;2024-03-06T01:16:07;98029.81;;;8.31;100.00
56182;BME280;51963;46.052;14.544;2024-03-06T01:18:33;98065.72;;;8.62;100.00
56182;BME280;51963;46.052;14.544;2024-03-06T01:20:59;98054.06;;;8.42;100.00
56182;BME280;51963;46.052;14.544;2024-03-06T01:23:25;98036.34;;;8.20;100.00
56182;BME280;51963;46.052;14.544;2024-03-06T01:25:53;98050.22;;;8.29;100.00
56182;BME280;51963;46.052;14.544;2024-03-06T01:28:19;98056.69;;;8.27;100.00
56182;BME280;51963;46.052;14.544;2024-03-06T01:30:44;98055.94;;;8.18;100.00
56182;BME280;51963;46.052;14.544;2024-03-06T01:33:10;98060.41;;;8.17;100.00
56182;BME280;51963;46.052;14.544;2024-03-06T01:35:35;98049.13;;;8.08;100.00
56182;BME280;51963;46.052;14.544;2024-03-06T01:38:04;98044.69;;;8.09;100.00
56182;BME280;51963;46.052;14.544;2024-03-06T01:40:29;98061.13;;;8.11;100.00
56182;BME280;51963;46.052;14.544;2024-03-06T01:42:55;98056.50;;;8.28;100.00
56182;BME280;51963;46.052;14.544;2024-03-06T01:45:23;98043.84;;;8.08;100.00
56182;BME280;51963;46.052;14.544;2024-03-06T01:47:49;98036.31;;;8.05;100.00
56182;BME280;51963;46.052;14.544;2024-03-06T01:50:18;98051.41;;;8.12;100.00
56182;BME280;51963;46.052;14.544;2024-03-06T01:52:44;98058.66;;;8.10;100.00
56182;BME280;51963;46.052;14.544;2024-03-06T01:55:12;98039.66;;;7.99;100.00
56182;BME280;51963;46.052;14.544;2024-03-06T01:57:38;98051.75;;;8.08;100.00
56182;BME280;51963;46.052;14.544;2024-03-06T02:00:06;98048.69;;;8.05;100.00
56182;BME280;51963;46.052;14.544;2024-03-06T02:02:34;98049.31;;;8.07;100.00
56182;BME280;51963;46.052;14.544;2024-03-06T02:05:00;98042.94;;;8.01;100.00
56182;BME280;51963;46.052;14.544;2024-03-06T02:07:28;98016.22;;;7.89;100.00
56182;BME280;51963;46.052;14.544;2024-03-06T02:09:57;98027.97;;;8.02;100.00
56182;BME280;51963;46.052;14.544;2024-03-06T02:12:23;98037.59;;;8.10;100.00
56182;BME280;51963;46.052;14.544;2024-03-06T02:14:49;98046.78;;;8.14;100.00
56182;BME280;51963;46.052;14.544;2024-03-06T02:17:14;98020.25;;;8.00;100.00
56182;BME280;51963;46.052;14.544;2024-03-06T02:19:41;98041.88;;;8.11;100.00
56182;BME280;51963;46.052;14.544;2024-03-06T02:22:08;98036.88;;;8.16;100.00
56182;BME280;51963;46.052;14.544;2024-03-06T02:24:35;98042.13;;;8.16;100.00
56182;BME280;51963;46.052;14.544;2024-03-06T02:27:03;98032.59;;;8.15;100.00
56182;BME280;51963;46.052;14.544;2024-03-06T02:29:32;98023.00;;;8.07;100.00
56182;BME280;51963;46.052;14.544;2024-03-06T02:32:01;98012.97;;;8.02;100.00
56182;BME280;51963;46.052;14.544;2024-03-06T02:34:29;98026.53;;;8.14;100.00
56182;BME280;51963;46.052;14.544;2024-03-06T02:36:57;98021.44;;;8.13;100.00
56182;BME280;51963;46.052;14.544;2024-03-06T02:39:23;98029.34;;;8.13;100.00
56182;BME280;51963;46.052;14.544;2024-03-06T02:41:52;98002.09;;;8.05;100.00
56182;BME280;51963;46.052;14.544;2024-03-06T02:44:18;98020.44;;;8.14;100.00
56182;BME280;51963;46.052;14.544;2024-03-06T02:46:47;98023.16;;;8.05;100.00
56182;BME280;51963;46.052;14.544;2024-03-06T02:49:15;98020.88;;;8.02;100.00
56182;BME280;51963;46.052;14.544;2024-03-06T02:51:41;98022.72;;;8.02;100.00
56182;BME280;51963;46.052;14.544;2024-03-06T02:54:06;98009.59;;;7.93;100.00
56182;BME280;51963;46.052;14.544;2024-03-06T02:56:32;98007.63;;;7.96;100.00
56182;BME280;51963;46.052;14.544;2024-03-06T02:58:57;98007.16;;;7.92;100.00
56182;BME280;51963;46.052;14.544;2024-03-06T03:01:23;98018.81;;;7.98;100.00
56182;BME280;51963;46.052;14.544;2024-03-06T03:03:49;98015.34;;;7.97;100.00
56182;BME280;51963;46.052;14.544;2024-03-06T03:06:16;98011.44;;;7.93;100.00
56182;BME280;51963;46.052;14.544;2024-03-06T03:08:42;98013.69;;;7.96;100.00
56182;BME280;51963;46.052;14.544;2024-03-06T03:11:08;98008.97;;;7.91;100.00
56182;BME280;51963;46.052;14.544;2024-03-06T03:13:33;98011.97;;;8.03;100.00
56182;BME280;51963;46.052;14.544;2024-03-06T03:15:59;97992.81;;;7.95;100.00
56182;BME280;51963;46.052;14.544;2024-03-06T03:18:25;98004.88;;;7.89;100.00
56182;BME280;51963;46.052;14.544;2024-03-06T03:20:50;98010.50;;;7.86;100.00
56182;BME280;51963;46.052;14.544;2024-03-06T03:23:16;97998.78;;;7.73;100.00
56182;BME280;51963;46.052;14.544;2024-03-06T03:25:48;98002.06;;;7.75;100.00
56182;BME280;51963;46.052;14.544;2024-03-06T03:28:15;98006.66;;;7.73;100.00
56182;BME280;51963;46.052;14.544;2024-03-06T03:30:45;98014.44;;;7.67;100.00
56182;BME280;51963;46.052;14.544;2024-03-06T03:33:11;98012.00;;;7.65;100.00
56182;BME280;51963;46.052;14.544;2024-03-06T03:35:37;98008.38;;;7.66;100.00
56182;BME280;51963;46.052;14.544;2024-03-06T03:38:05;98014.00;;;7.63;100.00
56182;BME280;51963;46.052;14.544;2024-03-06T03:40:31;98021.09;;;7.77;100.00
56182;BME280;51963;46.052;14.544;2024-03-06T03:42:58;98018.63;;;7.76;100.00
56182;BME280;51963;46.052;14.544;2024-03-06T03:45:24;98014.66;;;7.80;100.00
56182;BME280;51963;46.052;14.544;2024-03-06T03:47:50;98018.41;;;7.86;100.00
56182;BME280;51963;46.052;14.544;2024-03-06T03:50:15;98010.94;;;7.89;100.00
56182;BME280;51963;46.052;14.544;2024-03-06T03:52:41;98014.53;;;7.97;100.00
56182;BME280;51963;46.052;14.544;2024-03-06T03:55:09;98011.06;;;7.96;100.00
56182;BME280;51963;46.052;14.544;2024-03-06T03:57:35;98009.72;;;8.00;100.00
56182;BME280;51963;46.052;14.544;2024-03-06T04:00:00;98016.53;;;8.10;100.00
56182;BME280;51963;46.052;14.544;2024-03-06T04:02:29;98008.63;;;8.10;100.00
56182;BME280;51963;46.052;14.544;2024-03-06T04:04:57;98016.38;;;8.11;100.00
56182;BME280;51963;46.052;14.544;2024-03-06T04:07:22;98019.16;;;8.10;100.00
56182;BME280;51963;46.052;14.544;2024-03-06T04:09:48;98006.44;;;7.98;100.00
56182;BME280;51963;46.052;14.544;2024-03-06T04:12:15;98017.88;;;8.05;100.00
56182;BME280;51963;46.052;14.544;2024-03-06T04:14:44;97996.63;;;7.92;100.00
56182;BME280;51963;46.052;14.544;2024-03-06T04:17:11;98006.16;;;7.93;100.00
56182;BME280;51963;46.052;14.544;2024-03-06T04:19:36;98009.16;;;7.90;100.00
56182;BME280;51963;46.052;14.544;2024-03-06T04:22:02;98024.22;;;7.96;100.00
56182;BME280;51963;46.052;14.544;2024-03-06T04:24:27;98017.69;;;7.92;100.00
56182;BME280;51963;46.052;14.544;2024-03-06T04:26:54;98024.59;;;7.93;100.00
56182;BME280;51963;46.052;14.544;2024-03-06T04:29:20;98012.31;;;7.85;100.00
56182;BME280;51963;46.052;14.544;2024-03-06T04:31:45;98013.78;;;7.88;100.00
56182;BME280;51963;46.052;14.544;2024-03-06T04:34:11;98013.66;;;7.81;100.00
56182;BME280;51963;46.052;14.544;2024-03-06T04:36:40;98024.66;;;7.85;100.00
56182;BME280;51963;46.052;14.544;2024-03-06T04:39:05;98027.28;;;7.85;100.00
56182;BME280;51963;46.052;14.544;2024-03-06T04:41:33;98026.03;;;7.81;100.00
56182;BME280;51963;46.052;14.544;2024-03-06T04:44:02;98030.94;;;7.84;100.00
56182;BME280;51963;46.052;14.544;2024-03-06T04:46:29;97988.41;;;7.57;100.00
56182;BME280;51963;46.052;14.544;2024-03-06T04:49:02;98025.38;;;7.78;100.00
56182;BME280;51963;46.052;14.544;2024-03-06T04:51:28;98014.91;;;7.70;100.00
56182;BME280;51963;46.052;14.544;2024-03-06T04:53:54;98014.91;;;7.70;100.00
56182;BME280;51963;46.052;14.544;2024-03-06T04:56:19;98018.63;;;7.76;100.00
56182;BME280;51963;46.052;14.544;2024-03-06T04:58:48;98028.72;;;7.72;100.00
56182;BME280;51963;46.052;14.544;2024-03-06T05:01:22;98035.63;;;7.73;100.00
56182;BME280;51963;46.052;14.544;2024-03-06T05:03:47;98017.28;;;7.65;100.00
56182;BME280;51963;46.052;14.544;2024-03-06T05:06:18;98014.72;;;7.57;100.00
56182;BME280;51963;46.052;14.544;2024-03-06T05:08:53;98039.88;;;7.74;100.00
56182;BME280;51963;46.052;14.544;2024-03-06T05:11:18;98008.50;;;7.49;100.00
56182;BME280;51963;46.052;14.544;2024-03-06T05:13:44;98037.69;;;7.63;100.00
56182;BME280;51963;46.052;14.544;2024-03-06T05:16:10;98012.78;;;7.51;100.00
56182;BME280;51963;46.052;14.544;2024-03-06T05:18:35;98026.03;;;7.57;100.00
56182;BME280;51963;46.052;14.544;2024-03-06T05:21:01;98036.75;;;7.56;100.00
56182;BME280;51963;46.052;14.544;2024-03-06T05:23:26;98001.41;;;7.35;100.00
56182;BME280;51963;46.052;14.544;2024-03-06T05:25:52;98017.13;;;7.43;100.00
56182;BME280;51963;46.052;14.544;2024-03-06T05:28:18;98051.81;;;7.62;100.00
56182;BME280;51963;46.052;14.544;2024-03-06T05:30:43;98048.72;;;7.58;100.00
56182;BME280;51963;46.052;14.544;2024-03-06T05:33:09;98030.72;;;7.47;100.00
56182;BME280;51963;46.052;14.544;2024-03-06T05:35:34;98027.00;;;7.41;100.00
56182;BME280;51963;46.052;14.544;2024-03-06T05:38:03;98049.91;;;7.56;100.00
56182;BME280;51963;46.052;14.544;2024-03-06T05:40:28;98058.19;;;7.68;100.00
56182;BME280;51963;46.052;14.544;2024-03-06T05:42:54;98060.72;;;7.61;100.00
56182;BME280;51963;46.052;14.544;2024-03-06T05:45:19;98051.47;;;7.65;100.00
56182;BME280;51963;46.052;14.544;2024-03-06T05:47:45;98061.31;;;7.86;100.00
56182;BME280;51963;46.052;14.544;2024-03-06T05:50:12;98054.50;;;7.77;100.00
56182;BME280;51963;46.052;14.544;2024-03-06T05:52:39;98058.31;;;7.74;100.00
56182;BME280;51963;46.052;14.544;2024-03-06T05:55:05;98065.94;;;7.84;100.00
56182;BME280;51963;46.052;14.544;2024-03-06T05:57:31;98068.78;;;7.83;100.00
56182;BME280;51963;46.052;14.544;2024-03-06T05:59:57;98067.66;;;7.77;100.00
56182;BME280;51963;46.052;14.544;2024-03-06T06:02:23;98064.84;;;7.78;100.00
56182;BME280;51963;46.052;14.544;2024-03-06T06:04:49;98060.88;;;7.83;100.00
56182;BME280;51963;46.052;14.544;2024-03-06T06:07:15;98057.88;;;7.86;100.00
56182;BME280;51963;46.052;14.544;2024-03-06T06:09:41;98056.19;;;7.70;100.00
56182;BME280;51963;46.052;14.544;2024-03-06T06:12:08;98081.38;;;7.87;100.00
56182;BME280;51963;46.052;14.544;2024-03-06T06:14:34;98076.44;;;7.69;100.00
56182;BME280;51963;46.052;14.544;2024-03-06T06:16:59;98066.25;;;7.66;100.00
56182;BME280;51963;46.052;14.544;2024-03-06T06:19:25;98074.75;;;7.76;100.00
56182;BME280;51963;46.052;14.544;2024-03-06T06:22:10;98029.06;;;7.46;100.00
56182;BME280;51963;46.052;14.544;2024-03-06T06:24:47;98059.59;;;7.78;100.00
56182;BME280;51963;46.052;14.544;2024-03-06T06:27:14;98047.22;;;7.64;100.00
56182;BME280;51963;46.052;14.544;2024-03-06T06:29:39;98083.84;;;7.89;100.00
56182;BME280;51963;46.052;14.544;2024-03-06T06:32:05;98075.75;;;7.90;100.00
56182;BME280;51963;46.052;14.544;2024-03-06T06:34:30;98090.31;;;8.01;100.00
56182;BME280;51963;46.052;14.544;2024-03-06T06:36:57;98087.63;;;8.10;100.00
56182;BME280;51963;46.052;14.544;2024-03-06T06:39:22;98093.16;;;8.15;100.00
56182;BME280;51963;46.052;14.544;2024-03-06T06:41:48;98088.09;;;8.28;100.00
56182;BME280;51963;46.052;14.544;2024-03-06T06:44:14;98082.75;;;8.36;100.00
56182;BME280;51963;46.052;14.544;2024-03-06T06:46:39;98082.41;;;8.40;100.00
56182;BME280;51963;46.052;14.544;2024-03-06T06:49:05;98093.03;;;8.46;100.00
56182;BME280;51963;46.052;14.544;2024-03-06T06:51:31;98094.78;;;8.54;100.00
56182;BME280;51963;46.052;14.544;2024-03-06T06:53:57;98091.16;;;8.55;100.00
56182;BME280;51963;46.052;14.544;2024-03-06T06:56:22;98090.06;;;8.64;100.00
56182;BME280;51963;46.052;14.544;2024-03-06T06:58:49;98093.06;;;8.61;100.00
56182;BME280;51963;46.052;14.544;2024-03-06T07:01:15;98090.06;;;8.64;100.00
56182;BME280;51963;46.052;14.544;2024-03-06T07:03:42;98101.78;;;8.77;100.00
56182;BME280;51963;46.052;14.544;2024-03-06T07:06:08;98091.88;;;8.79;100.00
56182;BME280;51963;46.052;14.544;2024-03-06T07:08:33;98093.78;;;8.85;100.00
56182;BME280;51963;46.052;14.544;2024-03-06T07:10:59;98085.59;;;8.80;100.00
56182;BME280;51963;46.052;14.544;2024-03-06T07:13:25;98091.25;;;8.92;100.00
56182;BME280;51963;46.052;14.544;2024-03-06T07:15:51;98104.59;;;8.90;100.00
56182;BME280;51963;46.052;14.544;2024-03-06T07:18:19;98105.88;;;8.94;100.00
56182;BME280;51963;46.052;14.544;2024-03-06T07:20:44;98112.41;;;8.99;100.00
56182;BME280;51963;46.052;14.544;2024-03-06T07:23:11;98108.13;;;8.98;100.00
56182;BME280;51963;46.052;14.544;2024-03-06T07:25:38;98108.69;;;8.93;100.00
56182;BME280;51963;46.052;14.544;2024-03-06T07:28:04;98113.50;;;8.89;100.00
56182;BME280;51963;46.052;14.544;2024-03-06T07:30:30;98103.88;;;8.82;100.00
56182;BME280;51963;46.052;14.544;2024-03-06T07:32:56;98124.88;;;8.90;100.00
56182;BME280;51963;46.052;14.544;2024-03-06T07:35:23;98123.69;;;8.92;100.00
56182;BME280;51963;46.052;14.544;2024-03-06T07:37:49;98116.50;;;8.86;100.00
56182;BME280;51963;46.052;14.544;2024-03-06T07:40:15;98117.41;;;8.93;100.00
56182;BME280;51963;46.052;14.544;2024-03-06T07:42:40;98116.41;;;8.94;100.00
56182;BME280;51963;46.052;14.544;2024-03-06T07:45:06;98115.69;;;9.01;100.00
56182;BME280;51963;46.052;14.544;2024-03-06T07:47:35;98129.78;;;8.93;100.00
56182;BME280;51963;46.052;14.544;2024-03-06T07:50:04;98124.06;;;8.89;100.00
56182;BME280;51963;46.052;14.544;2024-03-06T07:52:31;98134.34;;;8.99;100.00
56182;BME280;51963;46.052;14.544;2024-03-06T07:54:57;98131.88;;;8.98;100.00
56182;BME280;51963;46.052;14.544;2024-03-06T07:57:23;98131.13;;;9.04;100.00
56182;BME280;51963;46.052;14.544;2024-03-06T07:59:49;98126.75;;;9.11;100.00
56182;BME280;51963;46.052;14.544;2024-03-06T08:02:17;98133.56;;;9.20;100.00
56182;BME280;51963;46.052;14.544;2024-03-06T08:04:43;98120.63;;;9.25;100.00
56182;BME280;51963;46.052;14.544;2024-03-06T08:07:09;98134.44;;;9.43;100.00
56182;BME280;51963;46.052;14.544;2024-03-06T08:09:35;98136.81;;;9.37;100.00
56182;BME280;51963;46.052;14.544;2024-03-06T08:12:01;98132.72;;;9.35;100.00
56182;BME280;51963;46.052;14.544;2024-03-06T08:14:27;98136.50;;;9.47;100.00
56182;BME280;51963;46.052;14.544;2024-03-06T08:16:53;98129.16;;;9.43;100.00
56182;BME280;51963;46.052;14.544;2024-03-06T08:19:22;98135.44;;;9.42;100.00
56182;BME280;51963;46.052;14.544;2024-03-06T08:21:50;98135.13;;;9.51;100.00
56182;BME280;51963;46.052;14.544;2024-03-06T08:24:16;98123.44;;;9.61;100.00
56182;BME280;51963;46.052;14.544;2024-03-06T08:26:42;98142.38;;;9.64;100.00
56182;BME280;51963;46.052;14.544;2024-03-06T08:29:08;98143.69;;;9.75;100.00
56182;BME280;51963;46.052;14.544;2024-03-06T08:31:33;98138.16;;;9.70;100.00
56182;BME280;51963;46.052;14.544;2024-03-06T08:33:59;98143.06;;;9.73;100.00
56182;BME280;51963;46.052;14.544;2024-03-06T08:36:25;98144.97;;;9.79;100.00
56182;BME280;51963;46.052;14.544;2024-03-06T08:38:50;98151.38;;;9.92;100.00
56182;BME280;51963;46.052;14.544;2024-03-06T08:41:16;98143.53;;;9.98;100.00
56182;BME280;51963;46.052;14.544;2024-03-06T08:43:42;98143.97;;;10.02;100.00
56182;BME280;51963;46.052;14.544;2024-03-06T08:46:07;98160.44;;;10.04;100.00
56182;BME280;51963;46.052;14.544;2024-03-06T08:48:33;98156.09;;;9.96;100.00
56182;BME280;51963;46.052;14.544;2024-03-06T08:50:59;98147.19;;;9.97;100.00
56182;BME280;51963;46.052;14.544;2024-03-06T08:53:28;98153.25;;;9.76;100.00
56182;BME280;51963;46.052;14.544;2024-03-06T08:55:54;98145.28;;;9.69;100.00
56182;BME280;51963;46.052;14.544;2024-03-06T08:58:19;98161.19;;;9.76;100.00
56182;BME280;51963;46.052;14.544;2024-03-06T09:00:46;98160.06;;;9.86;100.00
56182;BME280;51963;46.052;14.544;2024-03-06T09:03:13;98161.19;;;9.76;100.00
56182;BME280;51963;46.052;14.544;2024-03-06T09:05:39;98161.06;;;9.84;100.00
56182;BME280;51963;46.052;14.544;2024-03-06T09:08:05;98153.38;;;9.68;100.00
56182;BME280;51963;46.052;14.544;2024-03-06T09:10:34;98171.59;;;9.63;100.00
56182;BME280;51963;46.052;14.544;2024-03-06T09:13:00;98167.69;;;9.59;100.00
56182;BME280;51963;46.052;14.544;2024-03-06T09:15:26;98168.06;;;9.56;100.00
56182;BME280;51963;46.052;14.544;2024-03-06T09:17:51;98168.47;;;9.37;100.00
56182;BME280;51963;46.052;14.544;2024-03-06T09:20:17;98181.56;;;9.31;100.00
56182;BME280;51963;46.052;14.544;2024-03-06T09:22:43;98172.41;;;9.27;100.00
56182;BME280;51963;46.052;14.544;2024-03-06T09:25:09;98167.13;;;9.27;100.00
56182;BME280;51963;46.052;14.544;2024-03-06T09:27:35;98187.97;;;9.21;100.00
56182;BME280;51963;46.052;14.544;2024-03-06T09:30:01;98194.06;;;9.07;100.00
56182;BME280;51963;46.052;14.544;2024-03-06T09:32:28;98195.41;;;9.03;100.00
56182;BME280;51963;46.052;14.544;2024-03-06T09:34:56;98173.50;;;8.87;100.00
56182;BME280;51963;46.052;14.544;2024-03-06T09:37:21;98188.25;;;8.97;100.00
56182;BME280;51963;46.052;14.544;2024-03-06T09:39:47;98184.16;;;8.94;100.00
56182;BME280;51963;46.052;14.544;2024-03-06T09:42:15;98185.88;;;9.02;100.00
56182;BME280;51963;46.052;14.544;2024-03-06T09:44:44;98185.97;;;8.93;100.00
56182;BME280;51963;46.052;14.544;2024-03-06T09:47:13;98191.16;;;8.87;100.00
56182;BME280;51963;46.052;14.544;2024-03-06T09:49:40;98191.59;;;8.90;100.00
56182;BME280;51963;46.052;14.544;2024-03-06T09:52:08;98190.53;;;8.85;100.00
56182;BME280;51963;46.052;14.544;2024-03-06T09:54:33;98189.88;;;8.83;100.00
56182;BME280;51963;46.052;14.544;2024-03-06T09:57:24;98195.69;;;8.78;100.00
56182;BME280;51963;46.052;14.544;2024-03-06T09:59:50;98190.69;;;8.83;100.00
56182;BME280;51963;46.052;14.544;2024-03-06T10:02:56;98190.88;;;8.82;100.00
56182;BME280;51963;46.052;14.544;2024-03-06T10:05:23;98204.69;;;8.84;100.00
56182;BME280;51963;46.052;14.544;2024-03-06T10:07:55;98193.69;;;8.80;100.00
56182;BME280;51963;46.052;14.544;2024-03-06T10:10:20;98202.22;;;8.82;100.00
56182;BME280;51963;46.052;14.544;2024-03-06T10:12:49;98192.03;;;8.79;100.00
56182;BME280;51963;46.052;14.544;2024-03-06T10:15:15;98200.31;;;8.61;100.00
56182;BME280;51963;46.052;14.544;2024-03-06T10:17:41;98195.47;;;8.64;100.00
56182;BME280;51963;46.052;14.544;2024-03-06T10:20:35;98196.31;;;8.65;100.00
56182;BME280;51963;46.052;14.544;2024-03-06T10:23:27;98191.66;;;8.52;100.00
56182;BME280;51963;46.052;14.544;2024-03-06T10:25:56;98204.84;;;8.44;100.00
56182;BME280;51963;46.052;14.544;2024-03-06T10:28:23;98190.72;;;8.21;100.00
56182;BME280;51963;46.052;14.544;2024-03-06T10:30:50;98201.50;;;8.35;100.00
56182;BME280;51963;46.052;14.544;2024-03-06T10:33:18;98197.94;;;8.43;100.00
56182;BME280;51963;46.052;14.544;2024-03-06T10:35:46;98196.28;;;8.27;100.00
56182;BME280;51963;46.052;14.544;2024-03-06T10:38:13;98199.38;;;8.30;100.00
56182;BME280;51963;46.052;14.544;2024-03-06T10:40:43;98206.88;;;8.18;100.00
56182;BME280;51963;46.052;14.544;2024-03-06T10:43:10;98190.38;;;8.01;100.00
56182;BME280;51963;46.052;14.544;2024-03-06T10:46:06;98208.88;;;8.16;100.00
56182;BME280;51963;46.052;14.544;2024-03-06T10:48:36;98200.75;;;8.03;100.00
56182;BME280;51963;46.052;14.544;2024-03-06T10:51:03;98194.75;;;7.86;100.00
56182;BME280;51963;46.052;14.544;2024-03-06T10:53:31;98191.78;;;7.89;100.00
56182;BME280;51963;46.052;14.544;2024-03-06T10:55:58;98192.94;;;7.86;100.00
56182;BME280;51963;46.052;14.544;2024-03-06T10:58:25;98192.75;;;7.88;100.00
56182;BME280;51963;46.052;14.544;2024-03-06T11:00:51;98199.38;;;7.84;100.00
56182;BME280;51963;46.052;14.544;2024-03-06T11:03:17;98174.03;;;7.83;100.00
56182;BME280;51963;46.052;14.544;2024-03-06T11:05:44;98199.50;;;8.14;100.00
56182;BME280;51963;46.052;14.544;2024-03-06T11:08:13;98189.09;;;8.20;100.00
56182;BME280;51963;46.052;14.544;2024-03-06T11:10:41;98195.16;;;8.21;100.00
56182;BME280;51963;46.052;14.544;2024-03-06T11:15:45;98183.84;;;8.35;100.00
56182;BME280;51963;46.052;14.544;2024-03-06T11:21:27;98184.44;;;8.46;100.00
56182;BME280;51963;46.052;14.544;2024-03-06T11:26:53;98189.19;;;8.27;100.00
56182;BME280;51963;46.052;14.544;2024-03-06T11:29:21;98184.81;;;8.19;100.00
56182;BME280;51963;46.052;14.544;2024-03-06T11:32:00;98166.97;;;8.06;100.00
56182;BME280;51963;46.052;14.544;2024-03-06T11:34:26;98167.97;;;8.05;100.00
56182;BME280;51963;46.052;14.544;2024-03-06T11:36:59;98174.09;;;8.21;100.00
56182;BME280;51963;46.052;14.544;2024-03-06T11:39:29;98174.75;;;8.23;100.00
56182;BME280;51963;46.052;14.544;2024-03-06T11:41:59;98176.66;;;8.29;100.00
56182;BME280;51963;46.052;14.544;2024-03-06T11:44:26;98173.41;;;8.50;100.00
56182;BME280;51963;46.052;14.544;2024-03-06T11:46:58;98173.56;;;8.49;100.00
56182;BME280;51963;46.052;14.544;2024-03-06T11:49:29;98165.69;;;8.41;100.00
56182;BME280;51963;46.052;14.544;2024-03-06T11:52:04;98171.97;;;8.40;100.00
56182;BME280;51963;46.052;14.544;2024-03-06T11:54:31;98173.03;;;8.30;100.00
56182;BME280;51963;46.052;14.544;2024-03-06T11:57:02;98170.69;;;8.35;100.00
56182;BME280;51963;46.052;14.544;2024-03-06T11:59:30;98167.88;;;8.37;100.00
56182;BME280;51963;46.052;14.544;2024-03-06T12:01:58;98149.97;;;8.32;100.00
56182;BME280;51963;46.052;14.544;2024-03-06T12:04:24;98162.78;;;8.35;100.00
56182;BME280;51963;46.052;14.544;2024-03-06T12:06:51;98171.59;;;8.43;100.00
56182;BME280;51963;46.052;14.544;2024-03-06T12:09:17;98161.44;;;8.40;100.00
56182;BME280;51963;46.052;14.544;2024-03-06T12:11:43;98168.53;;;8.39;100.00
56182;BME280;51963;46.052;14.544;2024-03-06T12:14:19;98157.16;;;8.39;100.00
56182;BME280;51963;46.052;14.544;2024-03-06T12:17:01;98160.44;;;8.41;100.00
56182;BME280;51963;46.052;14.544;2024-03-06T12:19:34;98161.72;;;8.45;100.00
56182;BME280;51963;46.052;14.544;2024-03-06T12:22:01;98161.06;;;8.43;100.00
56182;BME280;51963;46.052;14.544;2024-03-06T12:24:28;98159.06;;;8.45;100.00
56182;BME280;51963;46.052;14.544;2024-03-06T12:27:04;98160.72;;;8.46;100.00
56182;BME280;51963;46.052;14.544;2024-03-06T12:29:31;98149.09;;;8.40;100.00
56182;BME280;51963;46.052;14.544;2024-03-06T12:31:58;98159.69;;;8.70;100.00
56182;BME280;51963;46.052;14.544;2024-03-06T12:34:24;98158.22;;;8.68;100.00
56182;BME280;51963;46.052;14.544;2024-03-06T12:36:50;98155.88;;;8.73;100.00
56182;BME280;51963;46.052;14.544;2024-03-06T12:39:17;98157.50;;;8.74;100.00
56182;BME280;51963;46.052;14.544;2024-03-06T12:41:52;98144.03;;;8.69;100.00
56182;BME280;51963;46.052;14.544;2024-03-06T12:44:19;98142.78;;;8.64;100.00
56182;BME280;51963;46.052;14.544;2024-03-06T12:46:45;98139.78;;;8.68;100.00
56182;BME280;51963;46.052;14.544;2024-03-06T12:49:11;98146.59;;;8.77;100.00
56182;BME280;51963;46.052;14.544;2024-03-06T12:51:36;98153.78;;;8.83;100.00
56182;BME280;51963;46.052;14.544;2024-03-06T12:54:02;98149.16;;;8.85;100.00
56182;BME280;51963;46.052;14.544;2024-03-06T12:56:29;98149.16;;;8.85;100.00
56182;BME280;51963;46.052;14.544;2024-03-06T12:58:54;98139.16;;;8.80;100.00